Time;durP1;ratioP1;P1;durP2;ratioP2;P2;SDS_P1;SDS_P2;PMS_P1;PMS_P2;Temp;Humidity;BMP_temperature;BMP_pressure;BME280_temperature;BME280_humidity;BME280_pressure;Samples;Min_cycle;Max_cycle;Signal;HPM_P1;HPM_P2
2021/11/23 00:00:24;;;;;;;;;;;;;;;;;;2081482;28;1285;-85
2021/11/23 00:01:26;;;;;;;;;;;;;;;;;;2081837;28;1809;-85
2021/11/23 00:02:27;;;;;;;;;;;;;;;;;;2073987;28;1906;-85
2021/11/23 00:03:28;;;;;;;;;;;;;;;;;;2074208;28;914;-84
2021/11/23 00:04:30;;;;;;;;;;;;;;;;;;2075269;28;1905;-85
2021/11/23 00:05:32;;;;;;;;;;;;;;;;;;2074123;28;1324;-85
2021/11/23 00:06:36;;;;;;;;;;;;;;;;;;2073488;28;1857;-85
2021/11/23 00:07:36;;;;;;;;;;;;;;;;;;2082608;28;911;-85
2021/11/23 00:08:38;;;;;;;;;;;;;;;;;;2082245;28;1214;-84
2021/11/23 00:09:39;;;;;;;;;;;;;;;;;;2074344;28;1973;-84
2021/11/23 00:10:41;;;;;;;;;;;;;;;;;;2074863;28;960;-85
2021/11/23 00:11:42;;;;;;;;;;;;;;;;;;2076178;28;1793;-85
2021/11/23 00:12:44;;;;;;;;;;;;;;;;;;2066059;28;1464;-85
2021/11/23 00:13:45;;;;;;;;;;;;;;;;;;2065579;28;1859;-85
2021/11/23 00:14:46;;;;;;;;;;;;;;;;;;2081689;28;1082;-85
2021/11/23 00:15:48;;;;;;;;;;;;;;;;;;2074681;28;817;-85
2021/11/23 00:16:49;;;;;;;;;;;;;;;;;;2080480;28;1899;-85
2021/11/23 00:17:50;;;;;;;;;;;;;;;;;;2082349;28;1202;-85
2021/11/23 00:18:51;;;;;;;;;;;;;;;;;;2074642;28;1908;-85
2021/11/23 00:19:54;;;;;;;;;;;;;;;;;;2081767;28;1304;-84
2021/11/23 00:20:55;;;;;;;;;;;;;;;;;;2082077;28;975;-86
2021/11/23 00:21:56;;;;;;;;;;;;;;;;;;2074288;28;1905;-85
2021/11/23 00:22:57;;;;;;;;;;;;;;;;;;2073877;28;1919;-85
2021/11/23 00:23:59;;;;;;;;;;;;;;;;;;2074423;28;1968;-85
2021/11/23 00:24:59;;;;;;;;;;;;;;;;;;2073749;28;1318;-85
2021/11/23 00:26:01;;;;;;;;;;;;;;;;;;2066215;28;2266;-85
2021/11/23 00:27:02;;;;;;;;;;;;;;;;;;2073317;28;1188;-85
2021/11/23 00:28:04;;;;;;;;;;;;;;;;;;2074030;28;1408;-85
2021/11/23 00:29:05;;;;;;;;;;;;;;;;;;2081670;28;1874;-85
2021/11/23 00:30:07;;;;;;;;;;;;;;;;;;2073955;28;1331;-85
2021/11/23 00:31:08;;;;;;;;;;;;;;;;;;2073107;28;1762;-85
2021/11/23 00:32:09;;;;;;;;;;;;;;;;;;2074401;28;946;-84
2021/11/23 00:33:11;;;;;;;;;;;;;;;;;;2073843;28;1242;-85
2021/11/23 00:34:11;;;;;;;;;;;;;;;;;;2070165;28;1939;-85
2021/11/23 00:35:14;;;;;;;;;;;;;;;;;;2073826;28;1116;-85
2021/11/23 00:36:16;;;;;;;;;;;;;;;;;;2075930;28;1900;-86
2021/11/23 00:37:17;;;;;;;;;;;;;;;;;;2073774;28;1269;-86
2021/11/23 00:38:19;;;;;;;;;;;;;;;;;;2073869;28;1423;-86
2021/11/23 00:39:19;;;;;;;;;;;;;;;;;;2086339;28;1896;-86
2021/11/23 00:40:21;;;;;;;;;;;;;;;;;;2082063;28;1335;-86
2021/11/23 00:41:23;;;;;;;;;;;;;;;;;;2078902;28;1686;-86
2021/11/23 00:42:24;;;;;;;;;;;;;;;;;;2073911;28;1955;-86
2021/11/23 00:43:26;;;;;;;;;;;;;;;;;;2065652;28;1398;-86
2021/11/23 00:44:28;;;;;;;;;;;;;;;;;;2071519;28;1844;-84
2021/11/23 00:45:30;;;;;;;;;;;;;;;;;;2073741;28;1375;-84
2021/11/23 00:46:31;;;;;;;;;;;;;;;;;;2065811;28;1925;-85
2021/11/23 00:47:32;;;;;;;;;;;;;;;;;;2065539;28;1483;-85
2021/11/23 00:48:33;;;;;;;;;;;;;;;;;;2073975;28;1337;-84
2021/11/23 00:49:35;;;;;;;;;;;;;;;;;;2065797;28;1942;-86
2021/11/23 00:50:37;;;;;;;;;;;;;;;;;;2073866;28;934;-85
2021/11/23 00:51:39;;;;;;;;;;;;;;;;;;2075094;28;1966;-85
2021/11/23 00:52:39;;;;;;;;;;;;;;;;;;2073446;28;1296;-84
2021/11/23 00:53:41;;;;;;;;;;;;;;;;;;2073629;28;1332;-86
2021/11/23 00:54:42;;;;;;;;;;;;;;;;;;2074345;28;1374;-85
2021/11/23 00:55:43;;;;;;;;;;;;;;;;;;2073905;28;991;-85
2021/11/23 00:56:46;;;;;;;;;;;;;;;;;;2073811;28;2063;-85
2021/11/23 00:57:47;;;;;;;;;;;;;;;;;;2065851;28;1296;-85
2021/11/23 00:58:48;;;;;;;;;;;;;;;;;;2066145;28;1886;-85
2021/11/23 00:59:49;;;;;;;;;;;;;;;;;;2073663;28;1252;-85
2021/11/23 01:00:50;;;;;;;;;;;;;;;;;;2073859;28;1332;-85
2021/11/23 01:01:52;;;;;;;;;;;;;;;;;;2081109;28;1899;-84
2021/11/23 01:02:53;;;;;;;;;;;;;;;;;;2081851;28;1967;-85
2021/11/23 01:03:54;;;;;;;;;;;;;;;;;;2075680;28;1849;-85
2021/11/23 01:04:55;;;;;;;;;;;;;;;;;;2082394;28;902;-85
2021/11/23 01:05:58;;;;;;;;;;;;;;;;;;2081905;28;1224;-85
2021/11/23 01:06:59;;;;;;;;;;;;;;;;;;2081587;28;907;-84
2021/11/23 01:08:01;;;;;;;;;;;;;;;;;;2081843;28;1218;-84
2021/11/23 01:09:02;;;;;;;;;;;;;;;;;;2073185;28;1788;-84
2021/11/23 01:10:05;;;;;;;;;;;;;;;;;;2082359;28;761;-85
2021/11/23 01:11:06;;;;;;;;;;;;;;;;;;2081345;28;1884;-85
2021/11/23 01:12:08;;;;;;;;;;;;;;;;;;2075758;28;1331;-85
2021/11/23 01:13:09;;;;;;;;;;;;;;;;;;2075247;28;1216;-85
2021/11/23 01:14:10;;;;;;;;;;;;;;;;;;2079894;28;1854;-85
2021/11/23 01:15:12;;;;;;;;;;;;;;;;;;2076002;28;824;-85
2021/11/23 01:16:15;;;;;;;;;;;;;;;;;;2076007;28;1022;-85
2021/11/23 01:17:17;;;;;;;;;;;;;;;;;;2083476;28;1312;-85
2021/11/23 01:18:18;;;;;;;;;;;;;;;;;;2075667;28;1396;-87
2021/11/23 01:19:20;;;;;;;;;;;;;;;;;;2074693;28;1859;-87
2021/11/23 01:20:23;;;;;;;;;;;;;;;;;;2075580;28;1190;-87
2021/11/23 01:21:25;;;;;;;;;;;;;;;;;;2070566;28;2048;-87
2021/11/23 01:22:27;;;;;;;;;;;;;;;;;;2075431;28;1288;-87
2021/11/23 01:23:27;;;;;;;;;;;;;;;;;;2067145;28;1981;-87
2021/11/23 01:24:29;;;;;;;;;;;;;;;;;;2067494;28;1843;-87
2021/11/23 01:25:30;;;;;;;;;;;;;;;;;;2067308;28;1319;-87
2021/11/23 01:26:32;;;;;;;;;;;;;;;;;;2071512;28;1885;-87
2021/11/23 01:27:34;;;;;;;;;;;;;;;;;;2075448;28;1204;-86
2021/11/23 01:28:35;;;;;;;;;;;;;;;;;;2075656;28;1375;-86
2021/11/23 01:29:37;;;;;;;;;;;;;;;;;;2075290;28;2049;-87
2021/11/23 01:30:39;;;;;;;;;;;;;;;;;;2067764;28;1295;-87
2021/11/23 01:31:40;;;;;;;;;;;;;;;;;;2067122;28;1311;-86
2021/11/23 01:32:41;;;;;;;;;;;;;;;;;;2067342;28;1271;-86
2021/11/23 01:33:43;;;;;;;;;;;;;;;;;;2067329;28;1891;-86
2021/11/23 01:34:43;;;;;;;;;;;;;;;;;;2067586;28;1264;-87
2021/11/23 01:35:45;;;;;;;;;;;;;;;;;;2067151;28;1205;-86
2021/11/23 01:36:48;;;;;;;;;;;;;;;;;;2081544;28;2039;-86
2021/11/23 01:37:50;;;;;;;;;;;;;;;;;;2075761;28;975;-86
2021/11/23 01:38:51;;;;;;;;;;;;;;;;;;2075579;28;1874;-86
2021/11/23 01:39:53;;;;;;;;;;;;;;;;;;2075322;28;1105;-84
2021/11/23 01:40:53;;;;;;;;;;;;;;;;;;2073903;28;1253;-85
2021/11/23 01:41:55;;;;;;;;;;;;;;;;;;2075165;28;1430;-85
2021/11/23 01:42:56;;;;;;;;;;;;;;;;;;2073995;28;1926;-86
2021/11/23 01:43:58;;;;;;;;;;;;;;;;;;2079699;28;1725;-85
2021/11/23 01:44:59;;;;;;;;;;;;;;;;;;2080873;28;1363;-85
2021/11/23 01:46:01;;;;;;;;;;;;;;;;;;2083078;28;1912;-86
2021/11/23 01:47:02;;;;;;;;;;;;;;;;;;2083147;28;1299;-85
2021/11/23 01:48:04;;;;;;;;;;;;;;;;;;2083406;28;745;-87
2021/11/23 01:49:05;;;;;;;;;;;;;;;;;;2075462;28;1901;-86
2021/11/23 01:50:07;;;;;;;;;;;;;;;;;;2067259;28;1205;-86
2021/11/23 01:51:09;;;;;;;;;;;;;;;;;;2067701;28;1810;-86
2021/11/23 01:52:11;;;;;;;;;;;;;;;;;;2084115;28;1374;-86
2021/11/23 01:53:15;;;;;;;;;;;;;;;;;;2083865;28;1414;-85
2021/11/23 01:54:16;;;;;;;;;;;;;;;;;;2086642;28;1945;-86
2021/11/23 01:55:18;;;;;;;;;;;;;;;;;;2083579;28;1478;-86
2021/11/23 01:56:19;;;;;;;;;;;;;;;;;;2090517;28;1322;-85
2021/11/23 01:57:21;;;;;;;;;;;;;;;;;;2083535;28;1313;-86
2021/11/23 01:58:21;;;;;;;;;;;;;;;;;;2067128;28;1234;-86
2021/11/23 01:59:23;;;;;;;;;;;;;;;;;;2075423;28;801;-86
2021/11/23 02:00:24;;;;;;;;;;;;;;;;;;2091510;28;1473;-85
2021/11/23 02:01:25;;;;;;;;;;;;;;;;;;2083300;28;1821;-85
2021/11/23 02:02:26;;;;;;;;;;;;;;;;;;2088862;28;1387;-86
2021/11/23 02:03:28;;;;;;;;;;;;;;;;;;2091774;28;1977;-89
2021/11/23 02:04:29;;;;;;;;;;;;;;;;;;2069553;28;1354;-85
2021/11/23 02:05:31;;;;;;;;;;;;;;;;;;2066714;28;1512;-87
2021/11/23 02:06:33;;;;;;;;;;;;;;;;;;2078745;28;1393;-87
2021/11/23 02:07:35;;;;;;;;;;;;;;;;;;2083543;28;1456;-87
2021/11/23 02:08:37;;;;;;;;;;;;;;;;;;2087838;28;1294;-87
2021/11/23 02:09:38;;;;;;;;;;;;;;;;;;2078227;28;1330;-87
2021/11/23 02:10:40;;;;;;;;;;;;;;;;;;2076484;28;1414;-87
2021/11/23 02:11:42;;;;;;;;;;;;;;;;;;2074753;28;1933;-87
2021/11/23 02:12:42;;;;;;;;;;;;;;;;;;2069990;28;1354;-87
2021/11/23 02:13:44;;;;;;;;;;;;;;;;;;2063658;28;1379;-87
2021/11/23 02:14:45;;;;;;;;;;;;;;;;;;2061767;28;1398;-87
2021/11/23 02:15:49;;;;;;;;;;;;;;;;;;2059445;28;1384;-86
2021/11/23 02:16:49;;;;;;;;;;;;;;;;;;2073647;28;1858;-87
2021/11/23 02:17:51;;;;;;;;;;;;;;;;;;2080319;28;1308;-87
2021/11/23 02:18:53;;;;;;;;;;;;;;;;;;2079777;28;1314;-87
2021/11/23 02:19:56;;;;;;;;;;;;;;;;;;2075595;28;1383;-87
2021/11/23 02:20:57;;;;;;;;;;;;;;;;;;2079979;28;1331;-87
2021/11/23 02:21:58;;;;;;;;;;;;;;;;;;2081179;28;1292;-87
2021/11/23 02:23:00;;;;;;;;;;;;;;;;;;2084406;28;1336;-87
2021/11/23 02:24:01;;;;;;;;;;;;;;;;;;2078608;28;1794;-87
2021/11/23 02:25:03;;;;;;;;;;;;;;;;;;2075182;28;1314;-87
2021/11/23 02:26:04;;;;;;;;;;;;;;;;;;2075070;28;1894;-87
2021/11/23 02:27:05;;;;;;;;;;;;;;;;;;2075184;28;1196;-87
2021/11/23 02:28:07;;;;;;;;;;;;;;;;;;2077488;28;1366;-87
2021/11/23 02:29:09;;;;;;;;;;;;;;;;;;2067108;28;1612;-87
2021/11/23 02:30:10;;;;;;;;;;;;;;;;;;2067031;28;1207;-87
2021/11/23 02:31:12;;;;;;;;;;;;;;;;;;2075918;28;1940;-87
2021/11/23 02:32:13;;;;;;;;;;;;;;;;;;2084222;28;1519;-87
2021/11/23 02:33:16;;;;;;;;;;;;;;;;;;2090482;28;1255;-87
2021/11/23 02:34:18;;;;;;;;;;;;;;;;;;2076532;28;1679;-86
2021/11/23 02:35:21;;;;;;;;;;;;;;;;;;2084876;28;1255;-86
2021/11/23 02:36:23;;;;;;;;;;;;;;;;;;2087642;28;1879;-87
2021/11/23 02:37:24;;;;;;;;;;;;;;;;;;2079825;28;1364;-86
2021/11/23 02:38:26;;;;;;;;;;;;;;;;;;2091213;28;1404;-86
2021/11/23 02:39:27;;;;;;;;;;;;;;;;;;2082795;28;1210;-88
2021/11/23 02:40:29;;;;;;;;;;;;;;;;;;2077635;28;1339;-87
2021/11/23 02:41:29;;;;;;;;;;;;;;;;;;2067321;28;1862;-89
2021/11/23 02:42:31;;;;;;;;;;;;;;;;;;2077229;28;1344;-88
2021/11/23 02:43:33;;;;;;;;;;;;;;;;;;2075019;28;1976;-89
2021/11/23 02:44:40;;;;;;;;;;;;;;;;;;2083310;28;1297;-89
2021/11/23 02:45:42;;;;;;;;;;;;;;;;;;2078429;28;1309;-89
2021/11/23 02:46:42;;;;;;;;;;;;;;;;;;2083975;28;1654;-89
2021/11/23 02:47:45;;;;;;;;;;;;;;;;;;2082487;28;1339;-89
2021/11/23 02:48:46;;;;;;;;;;;;;;;;;;2068598;28;1728;-89
2021/11/23 02:49:48;;;;;;;;;;;;;;;;;;2075007;28;1214;-88
2021/11/23 02:50:59;;;;;;;;;;;;;;;;;;2083851;28;1251;-89
2021/11/23 02:52:00;;;;;;;;;;;;;;;;;;2076024;28;1192;-89
2021/11/23 02:53:02;;;;;;;;;;;;;;;;;;2074781;28;1271;-87
2021/11/23 02:54:03;;;;;;;;;;;;;;;;;;2084833;28;1303;-87
2021/11/23 02:55:06;;;;;;;;;;;;;;;;;;2091614;28;805;-87
2021/11/23 02:56:07;;;;;;;;;;;;;;;;;;2090149;28;1848;-87
2021/11/23 02:57:08;;;;;;;;;;;;;;;;;;2082992;28;1377;-87
2021/11/23 02:58:11;;;;;;;;;;;;;;;;;;2075006;28;1197;-87
2021/11/23 02:59:12;;;;;;;;;;;;;;;;;;2074794;28;1205;-86
2021/11/23 03:00:16;;;;;;;;;;;;;;;;;;2067593;28;1284;-86
2021/11/23 03:01:19;;;;;;;;;;;;;;;;;;2067068;28;1716;-86
2021/11/23 03:02:20;;;;;;;;;;;;;;;;;;2059025;28;1307;-87
2021/11/23 03:03:22;;;;;;;;;;;;;;;;;;2058784;28;1910;-86
2021/11/23 03:04:23;;;;;;;;;;;;;;;;;;2056780;28;1358;-87
2021/11/23 03:05:26;;;;;;;;;;;;;;;;;;2075037;28;821;-87
2021/11/23 03:06:28;;;;;;;;;;;;;;;;;;2083390;28;1963;-87
2021/11/23 03:07:30;;;;;;;;;;;;;;;;;;2075151;28;1309;-86
2021/11/23 03:08:32;;;;;;;;;;;;;;;;;;2075335;28;1287;-86
2021/11/23 03:09:33;;;;;;;;;;;;;;;;;;2075220;28;1952;-87
2021/11/23 03:10:35;;;;;;;;;;;;;;;;;;2075342;28;1209;-88
2021/11/23 03:11:36;;;;;;;;;;;;;;;;;;2071892;28;1917;-87
2021/11/23 03:12:38;;;;;;;;;;;;;;;;;;2067195;28;1453;-87
2021/11/23 03:13:39;;;;;;;;;;;;;;;;;;2059388;28;1301;-87
2021/11/23 03:14:41;;;;;;;;;;;;;;;;;;2075148;28;1243;-87
2021/11/23 03:15:43;;;;;;;;;;;;;;;;;;2083203;28;1191;-87
2021/11/23 03:16:44;;;;;;;;;;;;;;;;;;2083521;28;1240;-87
2021/11/23 03:17:46;;;;;;;;;;;;;;;;;;2075067;28;1347;-87
2021/11/23 03:18:46;;;;;;;;;;;;;;;;;;2074799;28;1441;-87
2021/11/23 03:19:49;;;;;;;;;;;;;;;;;;2074884;28;1438;-87
2021/11/23 03:20:50;;;;;;;;;;;;;;;;;;2083412;28;754;-87
2021/11/23 03:21:54;;;;;;;;;;;;;;;;;;2083292;28;1224;-87
2021/11/23 03:22:55;;;;;;;;;;;;;;;;;;2075417;28;1225;-87
2021/11/23 03:23:57;;;;;;;;;;;;;;;;;;2083046;28;1910;-87
2021/11/23 03:24:58;;;;;;;;;;;;;;;;;;2075166;28;1345;-87
2021/11/23 03:25:59;;;;;;;;;;;;;;;;;;2067087;28;1279;-87
2021/11/23 03:27:00;;;;;;;;;;;;;;;;;;2075018;28;1037;-87
2021/11/23 03:28:04;;;;;;;;;;;;;;;;;;2075310;28;1410;-87
2021/11/23 03:29:05;;;;;;;;;;;;;;;;;;2077837;28;1404;-87
2021/11/23 03:30:08;;;;;;;;;;;;;;;;;;2074691;28;1340;-86
2021/11/23 03:31:11;;;;;;;;;;;;;;;;;;2069329;28;1479;-86
2021/11/23 03:32:13;;;;;;;;;;;;;;;;;;2067038;28;1342;-86
2021/11/23 03:33:14;;;;;;;;;;;;;;;;;;2067044;28;1313;-86
2021/11/23 03:34:15;;;;;;;;;;;;;;;;;;2082700;28;1285;-86
2021/11/23 03:35:16;;;;;;;;;;;;;;;;;;2083211;28;1028;-86
2021/11/23 03:36:18;;;;;;;;;;;;;;;;;;2083422;28;1160;-86
2021/11/23 03:37:22;;;;;;;;;;;;;;;;;;2074995;28;1309;-86
2021/11/23 03:38:24;;;;;;;;;;;;;;;;;;2083489;28;808;-86
2021/11/23 03:39:25;;;;;;;;;;;;;;;;;;2083001;28;1216;-86
2021/11/23 03:40:28;;;;;;;;;;;;;;;;;;2083427;28;856;-86
2021/11/23 03:41:30;;;;;;;;;;;;;;;;;;2078707;28;2094;-86
2021/11/23 03:42:30;;;;;;;;;;;;;;;;;;2074835;28;1241;-86
2021/11/23 03:43:32;;;;;;;;;;;;;;;;;;2066811;28;1257;-86
2021/11/23 03:44:33;;;;;;;;;;;;;;;;;;2066930;28;1241;-86
2021/11/23 03:45:35;;;;;;;;;;;;;;;;;;2074812;28;1133;-87
2021/11/23 03:46:36;;;;;;;;;;;;;;;;;;2079932;28;1303;-86
2021/11/23 03:47:38;;;;;;;;;;;;;;;;;;2074913;28;1383;-86
2021/11/23 03:48:39;;;;;;;;;;;;;;;;;;2066955;28;1349;-86
2021/11/23 03:49:42;;;;;;;;;;;;;;;;;;2066780;28;1224;-86
2021/11/23 03:50:44;;;;;;;;;;;;;;;;;;2074876;28;1226;-86
2021/11/23 03:51:45;;;;;;;;;;;;;;;;;;2081190;28;1339;-87
2021/11/23 03:52:48;;;;;;;;;;;;;;;;;;2075037;28;1338;-86
2021/11/23 03:53:49;;;;;;;;;;;;;;;;;;2074987;28;1400;-86
2021/11/23 03:54:51;;;;;;;;;;;;;;;;;;2074968;28;1283;-86
2021/11/23 03:55:52;;;;;;;;;;;;;;;;;;2082983;28;1298;-86
2021/11/23 03:56:53;;;;;;;;;;;;;;;;;;2075543;28;1839;-86
2021/11/23 03:57:56;;;;;;;;;;;;;;;;;;2074909;28;1439;-86
2021/11/23 03:58:57;;;;;;;;;;;;;;;;;;2074738;28;1236;-86
2021/11/23 03:59:59;;;;;;;;;;;;;;;;;;2074573;28;1462;-87
2021/11/23 04:01:01;;;;;;;;;;;;;;;;;;2075138;28;1342;-87
2021/11/23 04:02:02;;;;;;;;;;;;;;;;;;2074258;28;1217;-86
2021/11/23 04:03:04;;;;;;;;;;;;;;;;;;2066780;28;1235;-86
2021/11/23 04:04:04;;;;;;;;;;;;;;;;;;2066883;28;1978;-87
2021/11/23 04:05:07;;;;;;;;;;;;;;;;;;2066764;28;1315;-86
2021/11/23 04:06:07;;;;;;;;;;;;;;;;;;2068323;28;1300;-86
2021/11/23 04:07:09;;;;;;;;;;;;;;;;;;2074616;28;1256;-86
2021/11/23 04:08:12;;;;;;;;;;;;;;;;;;2083248;28;995;-87
2021/11/23 04:09:13;;;;;;;;;;;;;;;;;;2082338;28;1307;-86
2021/11/23 04:10:16;;;;;;;;;;;;;;;;;;2066879;28;1349;-86
2021/11/23 04:11:17;;;;;;;;;;;;;;;;;;2074835;28;1306;-86
2021/11/23 04:12:18;;;;;;;;;;;;;;;;;;2083106;28;1207;-86
2021/11/23 04:13:19;;;;;;;;;;;;;;;;;;2082618;28;1430;-86
2021/11/23 04:14:21;;;;;;;;;;;;;;;;;;2082949;28;1440;-86
2021/11/23 04:15:21;;;;;;;;;;;;;;;;;;2074704;28;1220;-86
2021/11/23 04:16:23;;;;;;;;;;;;;;;;;;2058539;28;1268;-86
2021/11/23 04:17:24;;;;;;;;;;;;;;;;;;2066537;28;1238;-86
2021/11/23 04:18:26;;;;;;;;;;;;;;;;;;2074850;28;1374;-86
2021/11/23 04:19:28;;;;;;;;;;;;;;;;;;2066535;28;2026;-86
2021/11/23 04:20:30;;;;;;;;;;;;;;;;;;2066759;28;1451;-87
2021/11/23 04:21:30;;;;;;;;;;;;;;;;;;2066827;28;1885;-86
2021/11/23 04:22:32;;;;;;;;;;;;;;;;;;2074823;28;1327;-87
2021/11/23 04:23:34;;;;;;;;;;;;;;;;;;2083031;28;919;-86
2021/11/23 04:24:36;;;;;;;;;;;;;;;;;;2075769;28;2063;-87
2021/11/23 04:25:37;;;;;;;;;;;;;;;;;;2074884;28;1605;-87
2021/11/23 04:26:39;;;;;;;;;;;;;;;;;;2071690;28;1991;-87
2021/11/23 04:27:40;;;;;;;;;;;;;;;;;;2066484;28;1359;-87
2021/11/23 04:28:42;;;;;;;;;;;;;;;;;;2082603;28;1208;-87
2021/11/23 04:29:43;;;;;;;;;;;;;;;;;;2066249;28;1176;-87
2021/11/23 04:30:44;;;;;;;;;;;;;;;;;;2074174;28;1522;-86
2021/11/23 04:31:45;;;;;;;;;;;;;;;;;;2080689;28;1495;-86
2021/11/23 04:32:48;;;;;;;;;;;;;;;;;;2082741;28;1316;-86
2021/11/23 04:33:49;;;;;;;;;;;;;;;;;;2082123;28;2127;-86
2021/11/23 04:34:50;;;;;;;;;;;;;;;;;;2066593;28;1219;-86
2021/11/23 04:35:51;;;;;;;;;;;;;;;;;;2074759;28;956;-86
2021/11/23 04:36:53;;;;;;;;;;;;;;;;;;2075863;28;820;-86
2021/11/23 04:37:54;;;;;;;;;;;;;;;;;;2074744;28;833;-87
2021/11/23 04:38:57;;;;;;;;;;;;;;;;;;2074750;28;1388;-86
2021/11/23 04:39:58;;;;;;;;;;;;;;;;;;2082296;28;1426;-87
2021/11/23 04:41:00;;;;;;;;;;;;;;;;;;2074642;28;1230;-86
2021/11/23 04:42:01;;;;;;;;;;;;;;;;;;2082832;28;1369;-88
2021/11/23 04:43:05;;;;;;;;;;;;;;;;;;2082600;28;1291;-87
2021/11/23 04:44:05;;;;;;;;;;;;;;;;;;2082989;28;1943;-87
2021/11/23 04:45:09;;;;;;;;;;;;;;;;;;2082618;28;1571;-88
2021/11/23 04:46:10;;;;;;;;;;;;;;;;;;2072513;28;1313;-87
2021/11/23 04:47:11;;;;;;;;;;;;;;;;;;2074455;28;1422;-87
2021/11/23 04:48:12;;;;;;;;;;;;;;;;;;2074491;28;1326;-87
2021/11/23 04:49:14;;;;;;;;;;;;;;;;;;2070009;28;1238;-87
2021/11/23 04:50:15;;;;;;;;;;;;;;;;;;2058782;28;1259;-87
2021/11/23 04:51:17;;;;;;;;;;;;;;;;;;2066272;28;1262;-86
2021/11/23 04:52:18;;;;;;;;;;;;;;;;;;2066531;28;1353;-88
2021/11/23 04:53:20;;;;;;;;;;;;;;;;;;2066003;28;1217;-87
2021/11/23 04:54:22;;;;;;;;;;;;;;;;;;2066527;28;1431;-87
2021/11/23 04:55:24;;;;;;;;;;;;;;;;;;2066471;28;1212;-87
2021/11/23 04:56:25;;;;;;;;;;;;;;;;;;2066587;28;1343;-87
2021/11/23 04:57:27;;;;;;;;;;;;;;;;;;2066511;28;1405;-87
2021/11/23 04:58:27;;;;;;;;;;;;;;;;;;2065973;28;1378;-88
2021/11/23 04:59:29;;;;;;;;;;;;;;;;;;2066993;28;2061;-86
2021/11/23 05:00:30;;;;;;;;;;;;;;;;;;2066704;28;1193;-85
2021/11/23 05:01:32;;;;;;;;;;;;;;;;;;2078600;28;1944;-86
2021/11/23 05:02:32;;;;;;;;;;;;;;;;;;2082266;28;1509;-86
2021/11/23 05:03:34;;;;;;;;;;;;;;;;;;2082268;28;1219;-85
2021/11/23 05:04:35;;;;;;;;;;;;;;;;;;2082517;28;1918;-86
2021/11/23 05:05:37;;;;;;;;;;;;;;;;;;2074111;28;1356;-87
2021/11/23 05:06:38;;;;;;;;;;;;;;;;;;2074816;28;932;-87
2021/11/23 05:07:40;;;;;;;;;;;;;;;;;;2082432;28;1203;-87
2021/11/23 05:08:41;;;;;;;;;;;;;;;;;;2082331;28;1228;-87
2021/11/23 05:09:44;;;;;;;;;;;;;;;;;;2074099;28;1380;-87
2021/11/23 05:10:45;;;;;;;;;;;;;;;;;;2082249;28;1408;-85
2021/11/23 05:11:48;;;;;;;;;;;;;;;;;;2075905;28;1933;-86
2021/11/23 05:12:49;;;;;;;;;;;;;;;;;;2066780;28;1363;-86
2021/11/23 05:13:50;;;;;;;;;;;;;;;;;;2067213;28;1410;-86
2021/11/23 05:14:51;;;;;;;;;;;;;;;;;;2074586;28;1567;-86
2021/11/23 05:15:53;;;;;;;;;;;;;;;;;;2074310;28;1244;-85
2021/11/23 05:16:53;;;;;;;;;;;;;;;;;;2082601;28;2102;-86
2021/11/23 05:17:55;;;;;;;;;;;;;;;;;;2082450;28;1193;-86
2021/11/23 05:18:56;;;;;;;;;;;;;;;;;;2074400;28;1414;-86
2021/11/23 05:19:57;;;;;;;;;;;;;;;;;;2074252;28;1270;-85
2021/11/23 05:20:59;;;;;;;;;;;;;;;;;;2074418;28;1220;-84
2021/11/23 05:22:02;;;;;;;;;;;;;;;;;;2074492;28;1361;-85
2021/11/23 05:23:03;;;;;;;;;;;;;;;;;;2082328;28;1271;-84
2021/11/23 05:24:05;;;;;;;;;;;;;;;;;;2066136;28;1330;-84
2021/11/23 05:25:08;;;;;;;;;;;;;;;;;;2066210;28;2007;-83
2021/11/23 05:26:10;;;;;;;;;;;;;;;;;;2074294;28;1251;-83
2021/11/23 05:27:11;;;;;;;;;;;;;;;;;;2066250;28;856;-83
2021/11/23 05:28:12;;;;;;;;;;;;;;;;;;2058206;28;1401;-84
2021/11/23 05:29:14;;;;;;;;;;;;;;;;;;2062234;28;2102;-84
2021/11/23 05:30:16;;;;;;;;;;;;;;;;;;2082480;28;962;-84
2021/11/23 05:31:16;;;;;;;;;;;;;;;;;;2074261;28;1279;-84
2021/11/23 05:32:18;;;;;;;;;;;;;;;;;;2066189;28;1522;-84
2021/11/23 05:33:19;;;;;;;;;;;;;;;;;;2066125;28;1284;-84
2021/11/23 05:34:21;;;;;;;;;;;;;;;;;;2063278;28;1279;-83
2021/11/23 05:35:21;;;;;;;;;;;;;;;;;;2066270;28;1229;-84
2021/11/23 05:36:24;;;;;;;;;;;;;;;;;;2082477;28;1287;-84
2021/11/23 05:37:24;;;;;;;;;;;;;;;;;;2090739;28;843;-84
2021/11/23 05:38:26;;;;;;;;;;;;;;;;;;2074254;28;1244;-84
2021/11/23 05:39:27;;;;;;;;;;;;;;;;;;2066123;28;1306;-84
2021/11/23 05:40:30;;;;;;;;;;;;;;;;;;2073990;28;1423;-84
2021/11/23 05:41:31;;;;;;;;;;;;;;;;;;2074043;28;1362;-84
2021/11/23 05:42:33;;;;;;;;;;;;;;;;;;2073981;28;1322;-83
2021/11/23 05:43:33;;;;;;;;;;;;;;;;;;2066274;28;1303;-84
2021/11/23 05:44:35;;;;;;;;;;;;;;;;;;2074471;28;1922;-83
2021/11/23 05:45:38;;;;;;;;;;;;;;;;;;2074073;28;1210;-90
2021/11/23 05:46:40;;;;;;;;;;;;;;;;;;2074182;28;1219;-84
2021/11/23 05:47:41;;;;;;;;;;;;;;;;;;2074048;28;1327;-83
2021/11/23 05:48:43;;;;;;;;;;;;;;;;;;2073931;28;1218;-83
2021/11/23 05:49:43;;;;;;;;;;;;;;;;;;2074514;28;1061;-83
2021/11/23 05:50:45;;;;;;;;;;;;;;;;;;2074718;28;797;-83
2021/11/23 05:51:46;;;;;;;;;;;;;;;;;;2079969;28;2171;-84
2021/11/23 05:52:48;;;;;;;;;;;;;;;;;;2073387;28;1355;-83
2021/11/23 05:53:48;;;;;;;;;;;;;;;;;;2064822;28;1268;-83
2021/11/23 05:54:50;;;;;;;;;;;;;;;;;;2073717;28;801;-83
2021/11/23 05:55:53;;;;;;;;;;;;;;;;;;2081338;28;1470;-84
2021/11/23 05:56:54;;;;;;;;;;;;;;;;;;2073002;28;1212;-83
2021/11/23 05:57:55;;;;;;;;;;;;;;;;;;2082088;28;805;-84
2021/11/23 05:58:56;;;;;;;;;;;;;;;;;;2081235;28;1980;-84
2021/11/23 05:59:58;;;;;;;;;;;;;;;;;;2074341;28;1384;-84
2021/11/23 06:00:59;;;;;;;;;;;;;;;;;;2065614;28;2004;-88
2021/11/23 06:02:00;;;;;;;;;;;;;;;;;;2082391;28;1568;-87
2021/11/23 06:03:02;;;;;;;;;;;;;;;;;;2074893;28;1294;-87
2021/11/23 06:04:02;;;;;;;;;;;;;;;;;;2067340;28;2101;-87
2021/11/23 06:05:04;;;;;;;;;;;;;;;;;;2075054;28;1890;-87
2021/11/23 06:06:05;;;;;;;;;;;;;;;;;;2076101;28;1924;-87
2021/11/23 06:07:07;;;;;;;;;;;;;;;;;;2075004;28;1267;-87
2021/11/23 06:08:09;;;;;;;;;;;;;;;;;;2083734;28;1298;-87
2021/11/23 06:09:09;;;;;;;;;;;;;;;;;;2083161;28;876;-87
2021/11/23 06:10:11;;;;;;;;;;;;;;;;;;2083328;28;1302;-87
2021/11/23 06:11:13;;;;;;;;;;;;;;;;;;2081413;28;1801;-87
2021/11/23 06:12:14;;;;;;;;;;;;;;;;;;2075898;28;997;-87
2021/11/23 06:13:15;;;;;;;;;;;;;;;;;;2074862;28;1327;-87
2021/11/23 06:14:17;;;;;;;;;;;;;;;;;;2067168;28;1433;-87
2021/11/23 06:15:18;;;;;;;;;;;;;;;;;;2074832;28;1382;-86
2021/11/23 06:16:20;;;;;;;;;;;;;;;;;;2075730;28;1852;-86
2021/11/23 06:17:23;;;;;;;;;;;;;;;;;;2080695;28;1579;-85
2021/11/23 06:18:24;;;;;;;;;;;;;;;;;;2083202;28;1759;-86
2021/11/23 06:19:26;;;;;;;;;;;;;;;;;;2083192;28;1795;-86
2021/11/23 06:20:26;;;;;;;;;;;;;;;;;;2083741;28;938;-84
2021/11/23 06:21:28;;;;;;;;;;;;;;;;;;2083451;28;1685;-87
2021/11/23 06:22:29;;;;;;;;;;;;;;;;;;2075127;28;1393;-87
2021/11/23 06:23:30;;;;;;;;;;;;;;;;;;2083328;28;1700;-87
2021/11/23 06:24:31;;;;;;;;;;;;;;;;;;2084183;28;860;-87
2021/11/23 06:25:33;;;;;;;;;;;;;;;;;;2083560;28;1985;-87
2021/11/23 06:26:35;;;;;;;;;;;;;;;;;;2082835;28;1785;-87
2021/11/23 06:27:37;;;;;;;;;;;;;;;;;;2083068;28;1196;-87
2021/11/23 06:28:37;;;;;;;;;;;;;;;;;;2075081;28;1206;-87
2021/11/23 06:29:39;;;;;;;;;;;;;;;;;;2082424;28;1819;-86
2021/11/23 06:30:40;;;;;;;;;;;;;;;;;;2083165;28;1770;-86
2021/11/23 06:31:42;;;;;;;;;;;;;;;;;;2082393;28;2065;-86
2021/11/23 06:32:42;;;;;;;;;;;;;;;;;;2083279;28;1153;-86
2021/11/23 06:33:44;;;;;;;;;;;;;;;;;;2074667;28;1420;-86
2021/11/23 06:34:44;;;;;;;;;;;;;;;;;;2067108;28;1676;-87
2021/11/23 06:35:47;;;;;;;;;;;;;;;;;;2083134;28;789;-87
2021/11/23 06:36:47;;;;;;;;;;;;;;;;;;2082465;28;2054;-86
2021/11/23 06:37:49;;;;;;;;;;;;;;;;;;2083023;28;844;-86
2021/11/23 06:38:50;;;;;;;;;;;;;;;;;;2074826;28;1716;-86
2021/11/23 06:39:52;;;;;;;;;;;;;;;;;;2074665;28;1743;-86
2021/11/23 06:40:53;;;;;;;;;;;;;;;;;;2075042;28;1459;-86
2021/11/23 06:41:56;;;;;;;;;;;;;;;;;;2081580;28;1758;-86
2021/11/23 06:42:57;;;;;;;;;;;;;;;;;;2083036;28;1778;-86
2021/11/23 06:44:02;;;;;;;;;;;;;;;;;;2082705;28;2095;-86
2021/11/23 06:45:04;;;;;;;;;;;;;;;;;;2082644;28;1910;-86
2021/11/23 06:46:05;;;;;;;;;;;;;;;;;;2073655;28;1651;-86
2021/11/23 06:47:06;;;;;;;;;;;;;;;;;;2074880;28;1228;-86
2021/11/23 06:48:08;;;;;;;;;;;;;;;;;;2083093;28;1625;-86
2021/11/23 06:49:10;;;;;;;;;;;;;;;;;;2079267;28;2083;-86
2021/11/23 06:50:10;;;;;;;;;;;;;;;;;;2066684;28;1296;-86
2021/11/23 06:51:13;;;;;;;;;;;;;;;;;;2067876;28;1882;-86
2021/11/23 06:52:13;;;;;;;;;;;;;;;;;;2083074;28;1660;-86
2021/11/23 06:53:15;;;;;;;;;;;;;;;;;;2091014;28;1311;-86
2021/11/23 06:54:16;;;;;;;;;;;;;;;;;;2078805;28;2036;-86
2021/11/23 06:55:17;;;;;;;;;;;;;;;;;;2066680;28;1300;-86
2021/11/23 06:56:18;;;;;;;;;;;;;;;;;;2077103;28;1923;-87
2021/11/23 06:57:21;;;;;;;;;;;;;;;;;;2074516;28;1240;-86
2021/11/23 06:58:22;;;;;;;;;;;;;;;;;;2082883;28;1205;-86
2021/11/23 06:59:24;;;;;;;;;;;;;;;;;;2081265;28;2151;-86
2021/11/23 07:00:26;;;;;;;;;;;;;;;;;;2082024;28;1867;-86
2021/11/23 07:01:28;;;;;;;;;;;;;;;;;;2082659;28;1832;-86
2021/11/23 07:02:29;;;;;;;;;;;;;;;;;;2083041;28;1255;-86
2021/11/23 07:03:31;;;;;;;;;;;;;;;;;;2082759;28;1192;-86
2021/11/23 07:04:31;;;;;;;;;;;;;;;;;;2082723;28;2126;-87
2021/11/23 07:05:33;;;;;;;;;;;;;;;;;;2083097;28;1906;-87
2021/11/23 07:06:35;;;;;;;;;;;;;;;;;;2080441;28;1670;-86
2021/11/23 07:07:36;;;;;;;;;;;;;;;;;;2080564;28;1480;-86
2021/11/23 07:08:37;;;;;;;;;;;;;;;;;;2082314;28;1425;-86